createdAt,value
2019-06-27T00:01:51.696Z,3.30
2019-06-27T00:04:18.735Z,3.07
2019-06-27T00:06:45.764Z,3.10
2019-06-27T00:09:14.616Z,2.67
2019-06-27T00:11:41.622Z,2.77
2019-06-27T00:14:08.681Z,3.17
2019-06-27T00:16:35.697Z,3.30
2019-06-27T00:19:02.734Z,3.27
2019-06-27T00:21:29.776Z,4.00
2019-06-27T00:23:56.805Z,3.70
2019-06-27T00:26:23.870Z,2.70
2019-06-27T00:28:50.920Z,4.17
2019-06-27T00:31:17.977Z,3.60
2019-06-27T00:33:44.992Z,3.20
2019-06-27T00:36:12.059Z,2.57
2019-06-27T00:38:39.081Z,3.17
2019-06-27T00:41:06.094Z,3.60
2019-06-27T00:43:33.130Z,2.97
2019-06-27T00:46:00.171Z,2.77
2019-06-27T00:48:27.211Z,3.07
2019-06-27T00:50:54.222Z,2.77
2019-06-27T00:53:21.397Z,3.83
2019-06-27T00:55:48.429Z,3.40
2019-06-27T00:58:15.462Z,2.50
2019-06-27T01:00:42.517Z,2.50
2019-06-27T01:03:09.580Z,3.10
2019-06-27T01:05:36.679Z,2.83
2019-06-27T01:08:03.678Z,2.80
2019-06-27T01:10:30.710Z,3.30
2019-06-27T01:12:57.762Z,3.40
2019-06-27T01:15:24.838Z,3.67
2019-06-27T01:17:51.863Z,3.80
2019-06-27T01:20:21.633Z,3.10
2019-06-27T01:22:48.710Z,3.00
2019-06-27T01:25:15.717Z,2.33
2019-06-27T01:27:42.788Z,3.00
2019-06-27T01:30:09.826Z,4.00
2019-06-27T01:32:36.887Z,3.20
2019-06-27T01:35:04.491Z,3.10
2019-06-27T01:37:31.609Z,2.70
2019-06-27T01:39:58.641Z,3.60
2019-06-27T01:42:25.708Z,3.50
2019-06-27T01:45:07.413Z,3.07
2019-06-27T01:47:34.497Z,3.97
2019-06-27T01:50:01.917Z,3.43
2019-06-27T01:52:29.165Z,2.87
2019-06-27T01:54:56.181Z,2.70
2019-06-27T01:57:23.246Z,3.30
2019-06-27T01:59:50.251Z,3.07
2019-06-27T02:02:17.258Z,3.00
2019-06-27T02:04:44.324Z,3.07
2019-06-27T02:07:11.331Z,3.20
2019-06-27T02:09:38.378Z,3.83
2019-06-27T02:12:05.401Z,2.80
2019-06-27T02:14:32.438Z,3.57
2019-06-27T02:16:59.448Z,4.03
2019-06-27T02:19:26.507Z,3.43
2019-06-27T02:21:53.575Z,2.63
2019-06-27T02:24:20.657Z,3.30
2019-06-27T02:26:47.666Z,3.30
2019-06-27T02:29:14.815Z,2.60
2019-06-27T02:31:41.877Z,3.03
2019-06-27T02:34:08.898Z,4.20
2019-06-27T02:36:35.955Z,2.67
2019-06-27T02:39:04.424Z,3.03
2019-06-27T02:41:31.442Z,3.70
2019-06-27T02:43:58.484Z,2.30
2019-06-27T02:46:25.517Z,3.13
2019-06-27T02:48:52.569Z,2.80
2019-06-27T02:51:19.606Z,2.70
2019-06-27T02:53:46.790Z,2.93
2019-06-27T02:56:13.817Z,3.07
2019-06-27T02:58:40.849Z,3.00
2019-06-27T03:01:07.953Z,3.03
2019-06-27T03:03:35.033Z,3.00
2019-06-27T03:06:02.094Z,3.33
2019-06-27T03:08:29.135Z,2.67
2019-06-27T03:10:56.167Z,3.00
2019-06-27T03:13:23.211Z,3.37
2019-06-27T03:15:50.285Z,2.93
2019-06-27T03:18:17.302Z,3.30
2019-06-27T03:20:44.351Z,3.20
2019-06-27T03:23:11.398Z,3.13
2019-06-27T03:25:38.480Z,2.90
2019-06-27T03:28:05.485Z,3.03
2019-06-27T03:30:33.019Z,2.40
2019-06-27T03:33:00.152Z,3.40
2019-06-27T03:35:27.399Z,3.67
2019-06-27T03:37:55.057Z,2.83
2019-06-27T03:40:22.627Z,4.03
2019-06-27T03:42:50.035Z,3.70
2019-06-27T03:45:17.529Z,4.10
2019-06-27T03:47:45.021Z,3.00
2019-06-27T03:50:12.338Z,3.47
2019-06-27T03:52:39.855Z,3.90
2019-06-27T03:55:06.912Z,3.80
2019-06-27T03:57:33.932Z,3.87
2019-06-27T04:00:00.992Z,3.23
2019-06-27T04:02:28.000Z,3.30
2019-06-27T04:04:55.147Z,3.10
2019-06-27T04:07:22.156Z,2.80
2019-06-27T04:09:49.152Z,2.87
2019-06-27T04:12:16.186Z,4.40
2019-06-27T04:14:43.267Z,2.50
2019-06-27T04:17:10.296Z,3.60
2019-06-27T04:19:37.318Z,3.10
2019-06-27T04:22:04.358Z,2.80
2019-06-27T04:24:31.355Z,3.50
2019-06-27T04:26:58.390Z,2.80
2019-06-27T04:29:33.566Z,4.17
2019-06-27T04:31:54.282Z,3.33
2019-06-27T04:34:21.312Z,3.83
2019-06-27T04:36:48.375Z,3.43
2019-06-27T04:39:15.407Z,3.47
2019-06-27T04:41:42.459Z,3.40
2019-06-27T04:44:09.472Z,4.03
2019-06-27T04:46:36.546Z,3.77
2019-06-27T04:49:03.558Z,4.10
2019-06-27T04:51:30.720Z,4.07
2019-06-27T04:53:57.729Z,3.60
2019-06-27T04:56:24.761Z,3.73
2019-06-27T04:58:51.751Z,3.80
2019-06-27T05:01:18.854Z,4.80
2019-06-27T05:03:46.166Z,4.03
2019-06-27T05:06:13.456Z,3.70
2019-06-27T05:08:40.770Z,3.73
2019-06-27T05:11:08.165Z,3.57
2019-06-27T05:13:36.367Z,3.43
2019-06-27T05:16:03.570Z,3.90
2019-06-27T05:18:30.634Z,3.53
2019-06-27T05:20:57.671Z,3.77
2019-06-27T05:23:24.697Z,3.43
2019-06-27T05:25:51.734Z,3.20
2019-06-27T05:28:18.737Z,3.43
2019-06-27T05:30:45.812Z,3.20
2019-06-27T05:33:12.828Z,3.33
2019-06-27T05:35:39.901Z,4.17
2019-06-27T05:38:10.529Z,3.50
2019-06-27T05:40:37.516Z,3.40
2019-06-27T05:43:04.553Z,3.30
2019-06-27T05:45:31.563Z,3.20
2019-06-27T05:47:58.651Z,3.50
2019-06-27T05:50:25.689Z,3.60
2019-06-27T05:52:52.705Z,4.37
2019-06-27T05:55:19.991Z,4.17
2019-06-27T05:57:47.137Z,3.30
2019-06-27T06:00:27.519Z,3.17
2019-06-27T06:02:43.097Z,3.43
2019-06-27T06:05:10.239Z,3.70
2019-06-27T06:07:37.306Z,3.07
2019-06-27T06:10:04.833Z,3.13
2019-06-27T06:12:32.779Z,2.90
2019-06-27T06:15:00.890Z,3.27
2019-06-27T06:17:28.624Z,3.97
2019-06-27T06:19:56.983Z,3.40
2019-06-27T06:22:24.216Z,2.83
2019-06-27T06:24:51.241Z,3.77
2019-06-27T06:27:18.323Z,3.47
2019-06-27T06:29:45.318Z,3.80
2019-06-27T06:32:12.402Z,4.17
2019-06-27T06:34:39.514Z,3.70
2019-06-27T06:37:08.188Z,3.57
2019-06-27T06:39:35.352Z,2.83
2019-06-27T06:42:02.368Z,2.60
2019-06-27T06:44:29.460Z,2.77
2019-06-27T06:46:56.539Z,4.10
2019-06-27T06:49:23.574Z,3.20
2019-06-27T06:51:50.658Z,3.47
2019-06-27T06:54:17.771Z,2.83
2019-06-27T06:56:44.849Z,2.67
2019-06-27T06:59:11.893Z,2.40
2019-06-27T07:01:38.967Z,2.80
2019-06-27T07:04:06.021Z,2.57
2019-06-27T07:06:34.271Z,3.10
2019-06-27T07:09:01.349Z,2.50
2019-06-27T07:11:28.383Z,3.10
2019-06-27T07:13:55.461Z,2.73
2019-06-27T07:16:22.503Z,2.47
2019-06-27T07:18:49.640Z,2.13
2019-06-27T07:21:16.688Z,2.27
2019-06-27T07:23:43.792Z,2.17
2019-06-27T07:26:10.867Z,2.70
2019-06-27T07:28:37.942Z,2.40
2019-06-27T07:31:17.183Z,2.90
2019-06-27T07:33:33.875Z,2.20
2019-06-27T07:36:00.888Z,2.13
2019-06-27T07:38:27.948Z,2.83
2019-06-27T07:40:55.001Z,2.13
2019-06-27T07:43:22.049Z,1.87
2019-06-27T07:45:49.117Z,2.20
2019-06-27T07:48:16.160Z,2.70
2019-06-27T07:50:43.242Z,2.63
2019-06-27T07:53:10.464Z,2.60
2019-06-27T07:55:37.603Z,3.00
2019-06-27T07:58:04.754Z,1.57
2019-06-27T08:00:31.816Z,1.90
2019-06-27T08:02:58.855Z,2.53
2019-06-27T08:05:25.913Z,2.23
2019-06-27T08:07:52.969Z,2.07
2019-06-27T08:10:20.083Z,1.93
2019-06-27T08:12:47.256Z,2.33
2019-06-27T08:15:14.356Z,2.07
2019-06-27T08:17:41.389Z,1.90
2019-06-27T08:20:08.549Z,2.20
2019-06-27T08:22:35.612Z,1.93
2019-06-27T08:25:02.746Z,2.80
2019-06-27T08:27:29.827Z,1.80
2019-06-27T08:29:56.856Z,1.50
2019-06-27T08:32:23.975Z,1.63
2019-06-27T08:34:51.001Z,1.60
2019-06-27T08:37:18.042Z,1.83
2019-06-27T08:39:45.385Z,1.63
2019-06-27T08:42:12.638Z,2.03
2019-06-27T08:44:39.711Z,1.70
2019-06-27T08:47:06.776Z,1.43
2019-06-27T08:49:33.808Z,1.83
2019-06-27T08:52:00.921Z,1.60
2019-06-27T08:54:27.958Z,2.10
2019-06-27T08:56:55.016Z,1.97
2019-06-27T08:59:22.104Z,1.57
2019-06-27T09:01:49.145Z,1.60
2019-06-27T09:04:16.179Z,1.40
2019-06-27T09:06:43.256Z,2.33
2019-06-27T09:09:10.283Z,1.93
2019-06-27T09:11:38.379Z,1.70
2019-06-27T09:14:05.533Z,1.70
2019-06-27T09:16:32.624Z,1.73
2019-06-27T09:18:59.636Z,2.03
2019-06-27T09:21:26.640Z,1.57
2019-06-27T09:23:53.691Z,1.20
2019-06-27T09:26:20.735Z,1.60
2019-06-27T09:28:47.784Z,1.57
2019-06-27T09:31:14.986Z,1.33
2019-06-27T09:33:42.032Z,1.37
2019-06-27T09:36:09.041Z,1.50
2019-06-27T09:38:36.117Z,1.73
2019-06-27T09:41:03.113Z,1.20
2019-06-27T09:43:30.137Z,1.50
2019-06-27T09:45:57.179Z,1.50
2019-06-27T09:48:24.168Z,1.20
2019-06-27T09:51:00.480Z,1.33
2019-06-27T09:53:27.929Z,1.03
2019-06-27T09:55:55.045Z,1.27
2019-06-27T09:58:22.088Z,1.50
2019-06-27T10:00:49.188Z,1.30
2019-06-27T10:03:17.070Z,1.10
2019-06-27T10:05:44.450Z,1.23
2019-06-27T10:08:11.487Z,1.20
2019-06-27T10:10:38.604Z,1.20
2019-06-27T10:13:05.873Z,1.30
2019-06-27T10:15:33.853Z,1.10
2019-06-27T10:18:01.041Z,2.83
2019-06-27T10:20:28.105Z,1.40
2019-06-27T10:22:58.063Z,1.47
2019-06-27T10:25:25.291Z,1.97
2019-06-27T10:27:52.640Z,1.60
2019-06-27T10:30:20.538Z,1.40
2019-06-27T10:32:58.464Z,1.10
2019-06-27T10:35:17.197Z,1.50
2019-06-27T10:37:44.601Z,1.40
2019-06-27T10:40:11.834Z,1.50
2019-06-27T10:42:39.371Z,1.30
2019-06-27T10:45:06.492Z,1.30
2019-06-27T10:47:33.581Z,1.43
2019-06-27T10:50:00.804Z,1.27
2019-06-27T10:52:27.862Z,1.33
2019-06-27T10:54:54.914Z,1.33
2019-06-27T10:57:21.988Z,1.03
2019-06-27T10:59:49.446Z,1.40
2019-06-27T11:02:16.461Z,1.60
2019-06-27T11:04:43.486Z,1.57
2019-06-27T11:07:10.585Z,1.70
2019-06-27T11:09:37.638Z,1.43
2019-06-27T11:12:05.018Z,1.40
2019-06-27T11:14:32.049Z,1.20
2019-06-27T11:16:59.117Z,1.27
2019-06-27T11:19:26.155Z,2.53
2019-06-27T11:21:53.241Z,1.80
2019-06-27T11:24:20.310Z,1.47
2019-06-27T11:26:47.432Z,1.50
2019-06-27T11:29:14.477Z,1.93
2019-06-27T11:31:41.545Z,1.57
2019-06-27T11:34:08.581Z,1.40
2019-06-27T11:36:35.606Z,2.00
2019-06-27T11:39:02.729Z,2.30
2019-06-27T11:41:30.207Z,2.97
2019-06-27T11:43:57.362Z,2.23
2019-06-27T11:46:24.716Z,1.60
2019-06-27T11:48:51.756Z,2.53
2019-06-27T11:51:19.114Z,2.13
2019-06-27T11:53:46.572Z,2.40
2019-06-27T11:56:14.027Z,1.90
2019-06-27T11:58:41.483Z,2.07
2019-06-27T12:01:08.837Z,1.90
2019-06-27T12:03:48.822Z,2.50
2019-06-27T12:06:05.231Z,2.00
2019-06-27T12:08:32.855Z,1.73
2019-06-27T12:10:59.970Z,1.83
2019-06-27T12:13:27.245Z,1.60
2019-06-27T12:15:54.693Z,1.97
2019-06-27T12:18:22.159Z,1.90
2019-06-27T12:20:49.466Z,1.60
2019-06-27T12:23:16.766Z,1.57
2019-06-27T12:25:43.886Z,1.70
2019-06-27T12:28:11.271Z,1.70
2019-06-27T12:30:39.009Z,1.93
2019-06-27T12:33:06.487Z,2.03
2019-06-27T12:35:33.844Z,1.80
2019-06-27T12:38:01.406Z,1.60
2019-06-27T12:40:28.967Z,1.70
2019-06-27T12:42:56.317Z,1.67
2019-06-27T12:45:23.692Z,1.97
2019-06-27T12:47:51.229Z,1.70
2019-06-27T12:50:18.707Z,2.37
2019-06-27T12:52:46.144Z,1.63
2019-06-27T12:55:13.494Z,1.93
2019-06-27T12:57:40.955Z,1.50
2019-06-27T13:00:09.037Z,1.83
2019-06-27T13:02:36.786Z,2.10
2019-06-27T13:05:04.345Z,2.03
2019-06-27T13:07:33.993Z,2.20
2019-06-27T13:10:00.522Z,2.00
2019-06-27T13:12:27.609Z,2.60
2019-06-27T13:14:54.888Z,1.90
2019-06-27T13:17:22.244Z,1.80
2019-06-27T13:19:49.658Z,1.87
2019-06-27T13:22:17.055Z,2.00
2019-06-27T13:24:44.407Z,1.87
2019-06-27T13:27:11.864Z,1.90
2019-06-27T13:29:39.117Z,2.10
2019-06-27T13:32:06.580Z,2.30
2019-06-27T13:34:40.243Z,1.70
2019-06-27T13:37:02.920Z,1.87
2019-06-27T13:39:30.586Z,1.37
2019-06-27T13:41:57.833Z,2.23
2019-06-27T13:44:25.290Z,1.63
2019-06-27T13:46:52.643Z,2.07
2019-06-27T13:49:19.748Z,1.87
2019-06-27T13:51:46.808Z,2.57
2019-06-27T13:54:13.802Z,1.80
2019-06-27T13:56:41.050Z,2.00
2019-06-27T13:59:08.398Z,1.73
2019-06-27T14:01:35.750Z,1.70
2019-06-27T14:04:03.205Z,2.30
2019-06-27T14:06:30.660Z,2.47
2019-06-27T14:09:01.143Z,2.40
2019-06-27T14:11:28.643Z,1.97
2019-06-27T14:13:55.895Z,2.17
2019-06-27T14:16:23.145Z,2.33
2019-06-27T14:18:50.502Z,1.93
2019-06-27T14:21:17.916Z,2.23
2019-06-27T14:23:45.021Z,2.30
2019-06-27T14:26:14.726Z,2.20
2019-06-27T14:28:42.274Z,2.80
2019-06-27T14:31:09.582Z,2.40
2019-06-27T14:33:37.288Z,2.50
2019-06-27T14:36:04.643Z,2.10
2019-06-27T14:38:32.105Z,2.10
2019-06-27T14:41:02.857Z,2.10
2019-06-27T14:43:30.155Z,2.60
2019-06-27T14:45:57.172Z,2.30
2019-06-27T14:48:24.163Z,2.37
2019-06-27T14:50:51.342Z,2.50
2019-06-27T14:53:18.360Z,2.60
2019-06-27T14:55:45.357Z,2.43
2019-06-27T14:58:15.174Z,2.40
2019-06-27T15:00:42.174Z,2.67
2019-06-27T15:03:09.213Z,2.63
2019-06-27T15:05:36.211Z,2.40
2019-06-27T15:08:06.318Z,3.00
2019-06-27T15:10:33.310Z,2.20
2019-06-27T15:13:00.317Z,2.53
2019-06-27T15:15:27.474Z,3.43
2019-06-27T15:17:54.482Z,2.90
2019-06-27T15:20:21.485Z,2.60
2019-06-27T15:22:48.535Z,2.53
2019-06-27T15:25:18.974Z,2.90
2019-06-27T15:27:45.983Z,2.90
2019-06-27T15:30:12.961Z,3.60
2019-06-27T15:32:40.173Z,3.10
2019-06-27T15:35:07.559Z,2.57
2019-06-27T15:37:34.559Z,3.60
2019-06-27T15:40:01.774Z,2.70
2019-06-27T15:42:28.873Z,2.97
2019-06-27T15:44:55.876Z,3.20
2019-06-27T15:47:22.919Z,2.23
2019-06-27T15:49:49.919Z,2.40
2019-06-27T15:52:17.107Z,2.17
2019-06-27T15:54:44.177Z,2.47
2019-06-27T15:57:11.335Z,2.07
2019-06-27T15:59:38.597Z,3.37
2019-06-27T16:02:05.614Z,3.40
2019-06-27T16:04:34.207Z,2.30
2019-06-27T16:07:01.628Z,2.50
2019-06-27T16:09:28.742Z,2.30
2019-06-27T16:11:55.782Z,2.10
2019-06-27T16:14:22.806Z,2.90
2019-06-27T16:16:49.852Z,2.10
2019-06-27T16:19:16.924Z,2.80
2019-06-27T16:21:43.943Z,2.67
2019-06-27T16:24:10.990Z,3.40
2019-06-27T16:26:37.996Z,2.63
2019-06-27T16:29:05.090Z,3.40
2019-06-27T16:31:35.374Z,2.90
2019-06-27T16:34:02.450Z,2.80
2019-06-27T16:36:29.483Z,2.57
2019-06-27T16:38:56.525Z,2.90
2019-06-27T16:41:26.446Z,2.40
2019-06-27T16:43:53.586Z,2.97
2019-06-27T16:46:20.604Z,2.40
2019-06-27T16:48:47.663Z,2.30
2019-06-27T16:51:14.724Z,3.80
2019-06-27T16:53:41.734Z,3.00
2019-06-27T16:56:08.828Z,2.10
2019-06-27T16:58:36.057Z,2.67
2019-06-27T17:01:03.063Z,2.77
2019-06-27T17:03:30.119Z,2.77
2019-06-27T17:05:57.125Z,2.87
2019-06-27T17:08:24.818Z,2.37
2019-06-27T17:10:51.857Z,2.20
2019-06-27T17:13:18.903Z,2.87
2019-06-27T17:15:45.927Z,2.50
2019-06-27T17:18:12.966Z,2.60
2019-06-27T17:20:40.469Z,2.87
2019-06-27T17:23:07.531Z,4.23
2019-06-27T17:25:34.573Z,2.80
2019-06-27T17:28:01.626Z,3.00
2019-06-27T17:30:28.642Z,4.17
2019-06-27T17:32:55.717Z,3.17
2019-06-27T17:35:22.847Z,2.93
2019-06-27T17:37:49.837Z,2.70
2019-06-27T17:40:16.974Z,2.90
2019-06-27T17:42:44.082Z,3.33
2019-06-27T17:45:11.127Z,2.57
2019-06-27T17:47:38.175Z,2.30
2019-06-27T17:50:05.309Z,2.87
2019-06-27T17:52:32.345Z,3.00
2019-06-27T17:54:59.405Z,3.23
2019-06-27T17:57:26.445Z,3.47
2019-06-27T17:59:53.511Z,2.93
2019-06-27T18:02:20.520Z,3.00
2019-06-27T18:04:47.586Z,3.47
2019-06-27T18:07:15.205Z,2.73
2019-06-27T18:09:42.615Z,2.73
2019-06-27T18:12:10.377Z,2.80
2019-06-27T18:14:37.728Z,3.07
2019-06-27T18:17:04.813Z,2.77
2019-06-27T18:19:31.805Z,3.10
2019-06-27T18:21:58.841Z,3.20
2019-06-27T18:24:26.212Z,2.30
2019-06-27T18:26:53.375Z,2.70
2019-06-27T18:29:20.728Z,2.90
2019-06-27T18:31:47.882Z,2.23
2019-06-27T18:34:15.611Z,2.47
2019-06-27T18:36:42.996Z,2.83
2019-06-27T18:39:10.431Z,2.77
2019-06-27T18:41:37.704Z,2.43
2019-06-27T18:44:05.857Z,2.70
2019-06-27T18:46:34.011Z,2.80
2019-06-27T18:49:01.208Z,2.70
2019-06-27T18:51:29.106Z,2.80
2019-06-27T18:53:56.633Z,3.00
2019-06-27T18:56:24.614Z,2.93
2019-06-27T18:58:53.640Z,2.50
2019-06-27T19:01:21.204Z,2.50
2019-06-27T19:03:48.397Z,2.50
2019-06-27T19:06:15.445Z,2.80
2019-06-27T19:08:43.253Z,2.87
2019-06-27T19:11:10.371Z,2.53
2019-06-27T19:13:38.384Z,2.43
2019-06-27T19:16:06.312Z,2.50
2019-06-27T19:18:52.388Z,3.03
2019-06-27T19:21:24.979Z,2.43
2019-06-27T19:24:01.471Z,2.53
2019-06-27T19:26:29.313Z,3.37
2019-06-27T19:28:56.968Z,2.83
2019-06-27T19:31:25.095Z,2.60
2019-06-27T19:33:52.733Z,2.40
2019-06-27T19:36:19.904Z,2.47
2019-06-27T19:38:47.951Z,2.83
2019-06-27T19:41:15.898Z,2.60
2019-06-27T19:43:43.015Z,2.70
2019-06-27T19:46:10.798Z,2.10
2019-06-27T19:48:38.146Z,2.63
2019-06-27T19:51:08.101Z,2.43
2019-06-27T19:53:35.966Z,2.50
2019-06-27T19:56:03.420Z,2.50
2019-06-27T19:58:30.501Z,2.63
2019-06-27T20:00:58.849Z,2.60
2019-06-27T20:03:25.986Z,2.50
2019-06-27T20:05:57.792Z,3.40
2019-06-27T20:08:25.173Z,2.30
2019-06-27T20:10:52.630Z,2.53
2019-06-27T20:13:20.035Z,2.47
2019-06-27T20:15:47.342Z,2.77
2019-06-27T20:18:14.599Z,2.53
2019-06-27T20:20:42.661Z,2.40
2019-06-27T20:23:09.973Z,2.93
2019-06-27T20:25:37.370Z,2.70
2019-06-27T20:28:04.679Z,2.57
2019-06-27T20:30:32.179Z,2.23
2019-06-27T20:32:59.503Z,2.43
2019-06-27T20:35:26.842Z,2.30
2019-06-27T20:37:54.198Z,3.20
2019-06-27T20:40:21.596Z,2.50
2019-06-27T20:42:49.074Z,2.83
2019-06-27T20:45:16.513Z,2.67
2019-06-27T20:47:43.869Z,2.30
2019-06-27T20:50:11.324Z,2.23
2019-06-27T20:52:38.367Z,2.97
2019-06-27T20:55:05.722Z,2.60
2019-06-27T20:57:32.783Z,1.97
2019-06-27T20:59:59.817Z,2.43
2019-06-27T21:02:26.888Z,3.30
2019-06-27T21:04:53.946Z,2.60
2019-06-27T21:07:21.026Z,2.37
2019-06-27T21:09:48.071Z,2.77
2019-06-27T21:12:15.195Z,2.47
2019-06-27T21:14:42.241Z,3.13
2019-06-27T21:17:09.308Z,2.60
2019-06-27T21:19:36.307Z,2.80
2019-06-27T21:22:03.406Z,2.70
2019-06-27T21:24:30.670Z,3.30
2019-06-27T21:26:57.721Z,2.77
2019-06-27T21:29:24.799Z,4.17
2019-06-27T21:31:51.964Z,2.40
2019-06-27T21:34:19.149Z,2.77
2019-06-27T21:36:46.162Z,3.17
2019-06-27T21:39:13.200Z,2.20
2019-06-27T21:41:40.276Z,2.80
2019-06-27T21:44:07.303Z,2.57
2019-06-27T21:46:34.327Z,2.40
2019-06-27T21:49:01.401Z,2.50
2019-06-27T21:51:28.418Z,2.93
2019-06-27T21:53:55.415Z,2.80
2019-06-27T21:56:22.507Z,2.70
2019-06-27T21:58:49.506Z,2.80
2019-06-27T22:01:16.634Z,2.80
2019-06-27T22:03:43.683Z,2.67
2019-06-27T22:06:10.740Z,2.57
2019-06-27T22:08:37.767Z,2.63
2019-06-27T22:11:04.763Z,2.90
2019-06-27T22:13:31.799Z,2.27
2019-06-27T22:15:58.789Z,2.53
2019-06-27T22:18:25.951Z,2.50
2019-06-27T22:20:52.963Z,2.53
2019-06-27T22:23:19.963Z,2.03
2019-06-27T22:25:47.280Z,2.70
2019-06-27T22:28:14.300Z,2.60
2019-06-27T22:30:41.347Z,2.87
2019-06-27T22:33:08.342Z,2.70
2019-06-27T22:35:35.521Z,2.80
2019-06-27T22:38:20.362Z,2.47
2019-06-27T22:41:05.124Z,3.00
2019-06-27T22:43:49.837Z,3.27
2019-06-27T22:46:34.536Z,2.70
2019-06-27T22:49:00.950Z,2.70
2019-06-27T22:52:05.201Z,2.60
2019-06-27T22:54:32.928Z,2.53
2019-06-27T22:56:59.955Z,2.50
2019-06-27T22:59:27.044Z,2.70
2019-06-27T23:01:54.215Z,2.07
2019-06-27T23:04:21.256Z,3.00
2019-06-27T23:06:48.223Z,2.20
2019-06-27T23:09:15.294Z,3.43
2019-06-27T23:11:42.299Z,2.50
2019-06-27T23:14:09.357Z,2.60
2019-06-27T23:16:36.361Z,2.87
2019-06-27T23:19:03.568Z,2.50
2019-06-27T23:21:30.576Z,2.43
2019-06-27T23:23:57.593Z,2.33
2019-06-27T23:26:24.646Z,2.73
2019-06-27T23:28:51.641Z,2.67
2019-06-27T23:31:18.716Z,2.50
2019-06-27T23:33:45.766Z,2.30
2019-06-27T23:36:12.773Z,2.70
2019-06-27T23:38:39.826Z,2.60
2019-06-27T23:41:06.837Z,2.40
2019-06-27T23:43:33.875Z,2.17
2019-06-27T23:46:00.894Z,2.50
2019-06-27T23:48:27.942Z,2.50
2019-06-27T23:50:54.953Z,2.40
2019-06-27T23:53:22.004Z,2.93
2019-06-27T23:55:49.009Z,2.40
2019-06-27T23:58:16.008Z,3.27
